createdAt,value
2024-01-27T00:02:18.004Z,6.40
2024-01-27T00:04:47.820Z,6.40
2024-01-27T00:07:17.721Z,6.40
2024-01-27T00:09:47.628Z,6.40
2024-01-27T00:12:17.449Z,6.40
2024-01-27T00:14:47.680Z,6.30
2024-01-27T00:17:22.583Z,6.30
2024-01-27T00:19:52.698Z,6.20
2024-01-27T00:22:22.622Z,6.20
2024-01-27T00:24:52.459Z,6.20
2024-01-27T00:27:22.347Z,6.30
2024-01-27T00:29:52.339Z,6.30
2024-01-27T00:32:24.840Z,6.30
2024-01-27T00:34:54.790Z,6.30
2024-01-27T00:37:24.642Z,6.20
2024-01-27T00:39:54.428Z,6.30
2024-01-27T00:42:25.891Z,6.30
2024-01-27T00:44:56.075Z,6.20
2024-01-27T00:47:28.768Z,6.20
2024-01-27T00:49:58.636Z,6.20
2024-01-27T00:52:28.521Z,6.20
2024-01-27T00:54:58.320Z,6.20
2024-01-27T00:57:28.228Z,6.10
2024-01-27T00:59:58.168Z,6.20
2024-01-27T01:02:30.829Z,6.20
2024-01-27T01:05:00.696Z,6.20
2024-01-27T01:07:30.577Z,6.20
2024-01-27T01:10:00.432Z,6.20
2024-01-27T01:12:30.321Z,6.10
2024-01-27T01:15:00.331Z,6.10
2024-01-27T01:17:32.828Z,6.10
2024-01-27T01:20:02.774Z,6.00
2024-01-27T01:22:32.691Z,6.00
2024-01-27T01:25:02.518Z,6.00
2024-01-27T01:27:32.319Z,6.00
2024-01-27T01:30:02.204Z,6.00
2024-01-27T01:32:34.722Z,6.00
2024-01-27T01:35:05.043Z,6.00
2024-01-27T01:37:34.869Z,6.00
2024-01-27T01:40:04.664Z,6.10
2024-01-27T01:42:34.530Z,6.00
2024-01-27T01:45:04.459Z,6.00
2024-01-27T01:47:37.244Z,6.00
2024-01-27T01:50:09.385Z,6.00
2024-01-27T01:52:40.054Z,5.90
2024-01-27T01:55:10.973Z,6.00
2024-01-27T01:57:41.543Z,6.00
2024-01-27T02:00:12.454Z,6.00
2024-01-27T02:02:47.453Z,6.00
2024-01-27T02:05:17.728Z,5.90
2024-01-27T02:07:47.511Z,6.00
2024-01-27T02:10:18.789Z,5.90
2024-01-27T02:12:48.899Z,6.00
2024-01-27T02:15:18.826Z,5.90
2024-01-27T02:17:51.396Z,5.90
2024-01-27T02:20:24.006Z,5.80
2024-01-27T02:22:53.797Z,5.90
2024-01-27T02:25:26.320Z,5.90
2024-01-27T02:27:56.123Z,5.80
2024-01-27T02:30:26.029Z,5.80
2024-01-27T02:32:56.321Z,5.80
2024-01-27T02:35:26.241Z,5.80
2024-01-27T02:37:56.037Z,5.70
2024-01-27T02:40:28.552Z,5.80
2024-01-27T02:42:58.352Z,5.80
2024-01-27T02:45:28.260Z,5.70
2024-01-27T02:47:58.317Z,5.80
2024-01-27T02:50:28.589Z,5.80
2024-01-27T02:52:58.473Z,5.80
2024-01-27T02:55:30.940Z,5.70
2024-01-27T02:58:00.715Z,5.80
2024-01-27T03:00:30.680Z,5.80
2024-01-27T03:03:01.194Z,5.70
2024-01-27T03:05:31.061Z,5.70
2024-01-27T03:08:01.395Z,5.70
2024-01-27T03:10:33.769Z,5.70
2024-01-27T03:13:03.949Z,5.70
2024-01-27T03:15:33.893Z,5.70
2024-01-27T03:18:03.901Z,5.70
2024-01-27T03:20:34.914Z,5.60
2024-01-27T03:23:04.828Z,5.70
2024-01-27T03:25:37.431Z,5.60
2024-01-27T03:28:08.036Z,5.60
2024-01-27T03:30:38.170Z,5.50
2024-01-27T03:33:12.202Z,5.50
2024-01-27T03:35:43.475Z,5.40
2024-01-27T03:38:13.342Z,5.50
2024-01-27T03:40:45.741Z,5.50
2024-01-27T03:43:15.573Z,5.50
2024-01-27T03:45:45.486Z,5.50
2024-01-27T03:48:15.457Z,5.50
2024-01-27T03:50:45.902Z,5.50
2024-01-27T03:53:15.723Z,5.40
2024-01-27T03:55:48.160Z,5.40
2024-01-27T03:58:18.070Z,5.40
2024-01-27T04:00:48.113Z,5.50
2024-01-27T04:03:18.351Z,5.40
2024-01-27T04:05:48.754Z,5.40
2024-01-27T04:08:18.703Z,5.40
2024-01-27T04:10:51.266Z,5.30
2024-01-27T04:13:21.133Z,5.30
2024-01-27T04:15:52.532Z,5.40
2024-01-27T04:18:22.532Z,5.40
2024-01-27T04:20:52.476Z,5.30
2024-01-27T04:23:22.306Z,5.30
2024-01-27T04:25:54.794Z,5.30
2024-01-27T04:28:24.655Z,5.40
2024-01-27T04:30:54.569Z,5.40
2024-01-27T04:33:24.575Z,5.30
2024-01-27T04:35:54.575Z,5.30
2024-01-27T04:38:25.211Z,5.30
2024-01-27T04:40:57.681Z,5.30
2024-01-27T04:43:27.513Z,5.30
2024-01-27T04:45:57.323Z,5.30
2024-01-27T04:48:27.277Z,5.30
2024-01-27T04:50:58.001Z,5.40
2024-01-27T04:53:27.933Z,5.30
2024-01-27T04:56:00.404Z,5.30
2024-01-27T04:58:30.268Z,5.30
2024-01-27T05:01:00.160Z,5.30
2024-01-27T05:03:30.048Z,5.30
2024-01-27T05:05:59.969Z,5.20
2024-01-27T05:08:29.921Z,5.20
2024-01-27T05:11:02.357Z,5.20
2024-01-27T05:13:32.258Z,5.10
2024-01-27T05:16:02.091Z,5.00
2024-01-27T05:18:32.125Z,5.10
2024-01-27T05:21:02.144Z,5.10
2024-01-27T05:23:32.061Z,5.10
2024-01-27T05:26:04.552Z,5.00
2024-01-27T05:28:34.712Z,5.00
2024-01-27T05:31:04.559Z,5.00
2024-01-27T05:33:34.590Z,4.90
2024-01-27T05:36:04.645Z,4.90
2024-01-27T05:38:34.927Z,4.90
2024-01-27T05:41:07.958Z,4.90
2024-01-27T05:43:37.845Z,4.90
2024-01-27T05:46:07.878Z,4.90
2024-01-27T05:48:38.075Z,4.90
2024-01-27T05:51:08.823Z,4.90
2024-01-27T05:53:40.095Z,4.90
2024-01-27T05:56:12.697Z,4.90
2024-01-27T05:58:42.676Z,4.90
2024-01-27T06:01:12.629Z,5.00
2024-01-27T06:03:44.983Z,5.00
2024-01-27T06:06:15.309Z,5.00
2024-01-27T06:08:45.295Z,5.00
2024-01-27T06:11:17.828Z,4.90
2024-01-27T06:13:49.882Z,4.90
2024-01-27T06:16:21.901Z,5.00
2024-01-27T06:18:51.935Z,5.00
2024-01-27T06:21:21.879Z,5.00
2024-01-27T06:23:51.878Z,5.10
2024-01-27T06:26:24.687Z,5.00
2024-01-27T06:28:54.522Z,5.00
2024-01-27T06:31:24.646Z,5.00
2024-01-27T06:33:54.545Z,5.00
2024-01-27T06:36:25.977Z,4.90
2024-01-27T06:38:56.209Z,5.00
2024-01-27T06:41:28.665Z,4.90
2024-01-27T06:43:58.506Z,5.00
2024-01-27T06:46:28.847Z,5.00
2024-01-27T06:48:58.891Z,4.90
2024-01-27T06:51:28.922Z,4.90
2024-01-27T06:53:58.921Z,4.80
2024-01-27T06:56:31.337Z,4.80
2024-01-27T06:59:01.164Z,4.80
2024-01-27T07:01:31.381Z,4.80
2024-01-27T07:04:01.334Z,4.80
2024-01-27T07:06:31.323Z,4.80
2024-01-27T07:09:01.310Z,4.90
2024-01-27T07:11:33.790Z,4.90
2024-01-27T07:14:03.668Z,4.80
2024-01-27T07:16:33.682Z,4.80
2024-01-27T07:19:03.893Z,4.90
2024-01-27T07:21:34.058Z,4.90
2024-01-27T07:24:04.568Z,5.00
2024-01-27T07:26:37.050Z,4.90
2024-01-27T07:29:06.935Z,5.00
2024-01-27T07:31:36.781Z,5.00
2024-01-27T07:34:07.643Z,5.00
2024-01-27T07:36:37.783Z,5.00
2024-01-27T07:39:09.033Z,4.90
2024-01-27T07:41:41.684Z,4.90
2024-01-27T07:44:13.056Z,4.90
2024-01-27T07:46:43.289Z,5.00
2024-01-27T07:49:14.558Z,5.00
2024-01-27T07:51:44.593Z,5.10
2024-01-27T07:54:14.503Z,5.10
2024-01-27T07:56:46.989Z,5.00
2024-01-27T07:59:17.643Z,5.10
2024-01-27T08:01:47.565Z,5.10
2024-01-27T08:04:17.934Z,5.20
2024-01-27T08:06:52.613Z,5.20
2024-01-27T08:09:22.802Z,5.20
2024-01-27T08:11:55.546Z,5.20
2024-01-27T08:14:25.405Z,5.20
2024-01-27T08:16:57.996Z,5.30
2024-01-27T08:19:29.196Z,5.30
2024-01-27T08:21:59.134Z,5.40
2024-01-27T08:24:29.123Z,5.40
2024-01-27T08:27:02.788Z,5.50
2024-01-27T08:29:32.740Z,5.60
2024-01-27T08:32:02.754Z,5.60
2024-01-27T08:34:32.785Z,5.60
2024-01-27T08:37:04.891Z,5.60
2024-01-27T08:39:34.770Z,5.70
2024-01-27T08:42:07.707Z,5.60
2024-01-27T08:44:37.580Z,5.70
2024-01-27T08:47:08.732Z,5.70
2024-01-27T08:49:39.041Z,5.80
2024-01-27T08:52:09.406Z,5.80
2024-01-27T08:54:39.691Z,5.90
2024-01-27T08:57:12.257Z,5.90
2024-01-27T08:59:42.498Z,6.00
2024-01-27T09:02:12.568Z,6.10
2024-01-27T09:04:42.613Z,6.20
2024-01-27T09:07:12.535Z,6.30
2024-01-27T09:09:42.439Z,6.30
2024-01-27T09:12:14.934Z,6.40
2024-01-27T09:14:45.256Z,6.40
2024-01-27T09:17:15.140Z,6.50
2024-01-27T09:19:45.041Z,6.60
2024-01-27T09:22:15.072Z,6.60
2024-01-27T09:24:45.111Z,6.70
2024-01-27T09:27:18.380Z,6.80
2024-01-27T09:29:48.298Z,6.90
2024-01-27T09:32:18.159Z,6.90
2024-01-27T09:34:48.325Z,7.00
2024-01-27T09:37:18.275Z,7.10
2024-01-27T09:39:48.188Z,7.20
2024-01-27T09:42:24.950Z,7.20
2024-01-27T09:44:56.873Z,7.20
2024-01-27T09:47:26.852Z,7.30
2024-01-27T09:49:56.846Z,7.40
2024-01-27T09:52:26.866Z,7.50
2024-01-27T09:54:57.034Z,7.50
2024-01-27T09:57:29.863Z,7.60
2024-01-27T10:00:01.778Z,7.70
2024-01-27T10:02:32.739Z,7.90
2024-01-27T10:05:04.191Z,8.10
2024-01-27T10:07:34.327Z,8.30
2024-01-27T10:10:04.243Z,8.50
2024-01-27T10:12:39.762Z,8.50
2024-01-27T10:15:10.470Z,9.90
2024-01-27T10:17:40.339Z,11.70
2024-01-27T10:20:14.521Z,13.20
2024-01-27T10:22:46.211Z,14.30
2024-01-27T10:25:18.244Z,14.50
2024-01-27T10:27:50.719Z,14.80
2024-01-27T10:30:21.799Z,15.50
2024-01-27T10:33:01.705Z,15.90
2024-01-27T10:35:32.415Z,16.20
2024-01-27T10:38:02.278Z,16.40
2024-01-27T10:40:32.609Z,16.60
2024-01-27T10:43:08.476Z,16.80
2024-01-27T10:45:42.912Z,16.80
2024-01-27T10:48:16.160Z,16.70
2024-01-27T10:50:46.318Z,17.00
2024-01-27T10:53:26.245Z,17.40
2024-01-27T10:56:01.097Z,17.70
2024-01-27T10:58:36.512Z,18.10
2024-01-27T11:01:07.310Z,18.50
2024-01-27T11:03:37.862Z,17.40
2024-01-27T11:06:09.532Z,16.80
2024-01-27T11:08:43.709Z,17.10
2024-01-27T11:11:14.802Z,17.10
2024-01-27T11:13:49.662Z,16.80
2024-01-27T11:16:20.910Z,17.10
2024-01-27T11:18:53.379Z,16.80
2024-01-27T11:21:23.611Z,16.80
2024-01-27T11:23:53.977Z,16.60
2024-01-27T11:26:27.334Z,16.70
2024-01-27T11:29:19.663Z,17.10
2024-01-27T11:31:50.192Z,17.40
2024-01-27T11:34:22.485Z,17.30
2024-01-27T11:36:52.551Z,16.80
2024-01-27T11:39:33.501Z,16.90
2024-01-27T11:42:10.310Z,17.20
2024-01-27T11:44:43.690Z,17.80
2024-01-27T11:47:19.780Z,18.30
2024-01-27T11:49:56.657Z,18.20
2024-01-27T11:52:27.388Z,18.00
2024-01-27T11:55:00.675Z,18.20
2024-01-27T11:57:31.478Z,18.30
2024-01-27T12:00:04.521Z,18.30
2024-01-27T12:02:34.465Z,17.60
2024-01-27T12:05:04.427Z,17.40
2024-01-27T12:07:34.785Z,17.20
2024-01-27T12:10:04.703Z,17.60
2024-01-27T12:12:34.803Z,17.90
2024-01-27T12:15:08.282Z,17.60
2024-01-27T12:17:38.160Z,17.50
2024-01-27T12:20:19.361Z,17.10
2024-01-27T12:22:50.489Z,16.80
2024-01-27T12:25:20.488Z,16.50
2024-01-27T12:27:50.536Z,16.20
2024-01-27T12:30:25.588Z,15.70
2024-01-27T12:32:55.596Z,15.10
2024-01-27T12:35:25.860Z,15.00
2024-01-27T12:37:55.805Z,14.70
2024-01-27T12:40:26.186Z,14.50
2024-01-27T12:42:53.482Z,14.40
2024-01-27T12:45:28.823Z,14.40
2024-01-27T12:48:00.872Z,14.40
2024-01-27T12:50:31.681Z,14.30
2024-01-27T12:53:01.572Z,14.10
2024-01-27T12:55:31.414Z,13.90
2024-01-27T12:58:01.450Z,13.70
2024-01-27T13:00:34.010Z,13.60
2024-01-27T13:03:04.207Z,13.70
2024-01-27T13:05:35.476Z,13.50
2024-01-27T13:08:05.505Z,13.50
2024-01-27T13:10:35.363Z,13.30
2024-01-27T13:13:06.098Z,13.30
2024-01-27T13:15:38.581Z,13.20
2024-01-27T13:18:09.279Z,13.10
2024-01-27T13:20:39.126Z,12.90
2024-01-27T13:23:08.970Z,12.90
2024-01-27T13:25:38.798Z,12.70
2024-01-27T13:28:12.630Z,12.70
2024-01-27T13:30:45.674Z,12.80
2024-01-27T13:33:15.623Z,12.80
2024-01-27T13:35:47.928Z,13.00
2024-01-27T13:38:21.118Z,12.80
2024-01-27T13:40:50.919Z,12.80
2024-01-27T13:43:20.754Z,12.70
2024-01-27T13:45:53.298Z,12.50
2024-01-27T13:48:23.338Z,12.50
2024-01-27T13:50:54.196Z,12.60
2024-01-27T13:53:31.534Z,12.60
2024-01-27T13:56:09.071Z,12.70
2024-01-27T13:58:38.964Z,12.80
2024-01-27T14:01:12.496Z,13.20
2024-01-27T14:03:42.834Z,13.70
2024-01-27T14:06:14.329Z,14.50
2024-01-27T14:08:44.663Z,15.00
2024-01-27T14:11:15.149Z,15.20
2024-01-27T14:13:45.542Z,15.30
2024-01-27T14:16:20.877Z,15.50
2024-01-27T14:18:51.694Z,15.40
2024-01-27T14:21:21.737Z,15.30
2024-01-27T14:23:51.757Z,15.20
2024-01-27T14:26:21.713Z,14.90
2024-01-27T14:28:51.516Z,14.90
2024-01-27T14:31:23.944Z,14.50
2024-01-27T14:33:54.034Z,14.20
2024-01-27T14:36:24.855Z,13.80
2024-01-27T14:38:55.155Z,13.30
2024-01-27T14:41:25.124Z,13.10
2024-01-27T14:43:54.974Z,12.90
2024-01-27T14:46:27.479Z,12.70
2024-01-27T14:48:57.372Z,12.60
2024-01-27T14:51:27.404Z,12.30
2024-01-27T14:53:58.430Z,12.00
2024-01-27T14:56:28.393Z,11.70
2024-01-27T14:58:58.191Z,11.50
2024-01-27T15:01:31.662Z,11.40
2024-01-27T15:04:02.052Z,11.20
2024-01-27T15:06:32.126Z,11.20
2024-01-27T15:09:02.186Z,11.10
2024-01-27T15:11:32.025Z,10.90
2024-01-27T15:14:02.825Z,10.80
2024-01-27T15:16:35.933Z,10.80
2024-01-27T15:19:05.833Z,10.70
2024-01-27T15:21:35.971Z,10.60
2024-01-27T15:24:06.187Z,10.60
2024-01-27T15:26:36.105Z,10.60
2024-01-27T15:29:05.954Z,10.50
2024-01-27T15:31:38.753Z,10.40
2024-01-27T15:34:10.013Z,10.30
2024-01-27T15:36:40.072Z,10.30
2024-01-27T15:39:10.333Z,10.40
2024-01-27T15:41:41.258Z,10.20
2024-01-27T15:44:11.196Z,10.10
2024-01-27T15:46:43.606Z,9.90
2024-01-27T15:49:13.618Z,9.90
2024-01-27T15:51:44.316Z,9.70
2024-01-27T15:54:14.214Z,9.70
2024-01-27T15:56:44.211Z,9.70
2024-01-27T15:59:14.393Z,9.60
2024-01-27T16:01:47.403Z,9.60
2024-01-27T16:04:18.980Z,9.40
2024-01-27T16:06:49.363Z,9.40
2024-01-27T16:09:19.312Z,9.30
2024-01-27T16:11:49.148Z,9.20
2024-01-27T16:14:19.372Z,9.20
2024-01-27T16:16:52.276Z,9.10
2024-01-27T16:19:22.441Z,9.00
2024-01-27T16:21:52.336Z,8.90
2024-01-27T16:24:22.174Z,8.90
2024-01-27T16:26:52.122Z,8.40
2024-01-27T16:29:22.569Z,8.70
2024-01-27T16:31:54.992Z,8.70
2024-01-27T16:34:25.216Z,8.60
2024-01-27T16:36:55.106Z,8.50
2024-01-27T16:39:25.030Z,8.40
2024-01-27T16:41:54.893Z,8.30
2024-01-27T16:44:24.861Z,8.10
2024-01-27T16:46:57.408Z,8.10
2024-01-27T16:49:27.339Z,8.10
2024-01-27T16:51:57.196Z,8.10
2024-01-27T16:54:27.325Z,8.00
2024-01-27T16:56:58.440Z,8.00
2024-01-27T16:59:28.255Z,7.90
2024-01-27T17:02:00.951Z,7.80
2024-01-27T17:04:30.730Z,7.70
2024-01-27T17:07:01.231Z,7.70
2024-01-27T17:09:31.776Z,7.60
2024-01-27T17:12:02.342Z,7.60
2024-01-27T17:14:32.236Z,7.50
2024-01-27T17:17:05.699Z,7.40
2024-01-27T17:19:36.888Z,7.30
2024-01-27T17:22:07.576Z,7.30
2024-01-27T17:24:37.913Z,7.30
2024-01-27T17:27:09.284Z,7.30
2024-01-27T17:29:39.325Z,7.30
2024-01-27T17:32:11.872Z,7.30
2024-01-27T17:34:41.787Z,7.30
2024-01-27T17:37:11.640Z,7.30
2024-01-27T17:39:41.507Z,7.30
2024-01-27T17:42:12.452Z,7.10
2024-01-27T17:44:42.569Z,7.10
2024-01-27T17:47:14.961Z,7.00
2024-01-27T17:49:45.576Z,7.10
2024-01-27T17:52:15.404Z,7.10
2024-01-27T17:54:45.772Z,7.00
2024-01-27T17:57:15.725Z,7.00
2024-01-27T17:59:45.550Z,6.90
2024-01-27T18:02:18.328Z,6.90
2024-01-27T18:04:48.188Z,6.90
2024-01-27T18:07:18.291Z,6.80
2024-01-27T18:09:48.164Z,6.80
2024-01-27T18:12:18.034Z,6.80
2024-01-27T18:14:48.153Z,6.70
2024-01-27T18:17:20.528Z,6.50
2024-01-27T18:19:50.718Z,6.40
2024-01-27T18:22:20.538Z,6.40
2024-01-27T18:24:52.542Z,6.40
2024-01-27T18:27:22.756Z,6.30
2024-01-27T18:29:54.225Z,6.20
2024-01-27T18:32:26.826Z,6.20
2024-01-27T18:34:56.791Z,6.10
2024-01-27T18:37:26.829Z,6.00
2024-01-27T18:39:59.843Z,6.00
2024-01-27T18:42:29.713Z,6.00
2024-01-27T18:44:59.809Z,6.00
2024-01-27T18:47:32.391Z,6.00
2024-01-27T18:50:02.841Z,6.00
2024-01-27T18:52:34.235Z,6.00
2024-01-27T18:55:04.769Z,6.10
2024-01-27T18:57:34.705Z,6.10
2024-01-27T19:00:06.133Z,6.10
2024-01-27T19:02:38.814Z,6.00
2024-01-27T19:05:11.049Z,5.90
2024-01-27T19:07:40.916Z,5.90
2024-01-27T19:10:11.782Z,6.00
2024-01-27T19:12:41.632Z,5.80
2024-01-27T19:15:13.359Z,5.80
2024-01-27T19:17:46.003Z,5.90
2024-01-27T19:20:16.314Z,5.90
2024-01-27T19:22:49.213Z,6.00
2024-01-27T19:25:19.219Z,5.90
2024-01-27T19:27:49.066Z,5.90
2024-01-27T19:30:20.113Z,5.90
2024-01-27T19:32:52.575Z,6.00
2024-01-27T19:35:23.176Z,6.00
2024-01-27T19:37:53.127Z,6.00
2024-01-27T19:40:22.978Z,5.90
2024-01-27T19:42:52.854Z,5.80
2024-01-27T19:45:23.693Z,5.80
2024-01-27T19:47:56.562Z,5.80
2024-01-27T19:50:26.757Z,5.90
2024-01-27T19:52:56.743Z,5.80
2024-01-27T19:55:26.532Z,5.90
2024-01-27T19:57:56.355Z,5.90
2024-01-27T20:00:30.896Z,5.90
2024-01-27T20:03:04.544Z,5.90
2024-01-27T20:05:34.367Z,6.00
2024-01-27T20:08:04.205Z,5.90
2024-01-27T20:10:34.032Z,5.90
2024-01-27T20:13:05.725Z,5.80
2024-01-27T20:15:35.588Z,5.80
2024-01-27T20:18:08.779Z,5.80
2024-01-27T20:20:39.747Z,5.80
2024-01-27T20:23:09.656Z,5.80
2024-01-27T20:25:39.491Z,5.70
2024-01-27T20:28:09.534Z,5.60
2024-01-27T20:30:39.405Z,5.60
2024-01-27T20:33:12.629Z,5.50
2024-01-27T20:35:42.564Z,5.50
2024-01-27T20:38:12.377Z,5.40
2024-01-27T20:40:42.178Z,5.30
2024-01-27T20:43:12.060Z,5.30
2024-01-27T20:45:42.136Z,5.20
2024-01-27T20:48:18.748Z,5.20
2024-01-27T20:50:50.141Z,5.20
2024-01-27T20:53:20.060Z,5.20
2024-01-27T20:55:52.176Z,5.10
2024-01-27T20:58:22.309Z,5.10
2024-01-27T21:00:53.370Z,5.10
2024-01-27T21:03:26.358Z,5.10
2024-01-27T21:05:56.218Z,5.10
2024-01-27T21:08:26.072Z,5.00
2024-01-27T21:10:55.960Z,5.00
2024-01-27T21:13:25.780Z,5.10
2024-01-27T21:15:55.635Z,5.00
2024-01-27T21:18:29.549Z,4.90
2024-01-27T21:21:00.456Z,5.00
2024-01-27T21:23:30.400Z,4.90
2024-01-27T21:26:03.179Z,4.90
2024-01-27T21:28:34.173Z,4.90
2024-01-27T21:31:04.080Z,4.90
2024-01-27T21:33:37.202Z,4.80
2024-01-27T21:36:07.895Z,4.70
2024-01-27T21:38:37.736Z,4.50
2024-01-27T21:41:07.747Z,4.40
2024-01-27T21:43:37.549Z,4.40
2024-01-27T21:46:09.064Z,4.50
2024-01-27T21:48:41.785Z,4.50
2024-01-27T21:51:13.271Z,4.60
2024-01-27T21:53:43.248Z,4.50
2024-01-27T21:56:13.539Z,4.50
2024-01-27T21:58:43.408Z,4.50
2024-01-27T22:01:13.526Z,4.50
2024-01-27T22:03:46.068Z,4.50
2024-01-27T22:06:16.063Z,4.50
2024-01-27T22:08:46.430Z,4.50
2024-01-27T22:11:16.265Z,4.50
2024-01-27T22:13:46.069Z,4.40
2024-01-27T22:16:15.895Z,4.40
2024-01-27T22:18:50.195Z,4.40
2024-01-27T22:21:20.218Z,4.30
2024-01-27T22:23:50.088Z,4.30
2024-01-27T22:26:19.983Z,4.30
2024-01-27T22:28:49.852Z,4.70
2024-01-27T22:31:19.948Z,4.30
2024-01-27T22:33:52.602Z,4.30
2024-01-27T22:36:22.586Z,4.30
2024-01-27T22:38:55.115Z,4.30
2024-01-27T22:41:27.146Z,4.30
2024-01-27T22:43:57.025Z,4.10
2024-01-27T22:46:28.065Z,4.10
2024-01-27T22:49:00.541Z,4.10
2024-01-27T22:51:31.660Z,4.00
2024-01-27T22:54:01.511Z,4.10
2024-01-27T22:56:31.381Z,4.10
2024-01-27T22:59:01.191Z,4.10
2024-01-27T23:01:31.060Z,3.90
2024-01-27T23:04:03.583Z,4.10
2024-01-27T23:06:33.541Z,4.20
2024-01-27T23:09:07.523Z,4.10
2024-01-27T23:11:38.298Z,4.10
2024-01-27T23:14:08.790Z,4.10
2024-01-27T23:16:38.610Z,4.10
2024-01-27T23:19:14.285Z,4.00
2024-01-27T23:21:44.464Z,4.10
2024-01-27T23:24:14.400Z,4.00
2024-01-27T23:26:44.255Z,3.90
2024-01-27T23:29:14.159Z,3.90
2024-01-27T23:31:44.071Z,3.90
2024-01-27T23:34:16.973Z,3.90
2024-01-27T23:36:46.879Z,3.90
2024-01-27T23:39:17.611Z,3.90
2024-01-27T23:41:47.479Z,4.00
2024-01-27T23:44:17.285Z,4.20
2024-01-27T23:46:47.120Z,4.50
2024-01-27T23:49:19.680Z,4.60
2024-01-27T23:51:49.543Z,4.80
2024-01-27T23:54:19.489Z,4.90
2024-01-27T23:56:49.507Z,4.90
2024-01-27T23:59:19.624Z,5.00
